Map

Track Data

SID SEASON NUMBER BASIN SUBBASIN NAME ISO_TIME NATURE LAT LON WMO_WIND WMO_PRES WMO_AGENCY TRACK_TYPE DIST2LAND LANDFALL IFLAG USA_AGENCY USA_ATCF_ID USA_LAT USA_LON USA_RECORD USA_STATUS USA_WIND USA_PRES USA_SSHS USA_R34_NE USA_R34_SE USA_R34_SW USA_R34_NW USA_R50_NE USA_R50_SE USA_R50_SW USA_R50_NW USA_R64_NE USA_R64_SE USA_R64_SW USA_R64_NW USA_POCI USA_ROCI USA_RMW USA_EYE TOKYO_LAT TOKYO_LON TOKYO_GRADE TOKYO_WIND TOKYO_PRES TOKYO_R50_DIR TOKYO_R50_LONG TOKYO_R50_SHORT TOKYO_R30_DIR TOKYO_R30_LONG TOKYO_R30_SHORT TOKYO_LAND CMA_LAT CMA_LON CMA_CAT CMA_WIND CMA_PRES HKO_LAT HKO_LON HKO_CAT HKO_WIND HKO_PRES NEWDELHI_LAT NEWDELHI_LON NEWDELHI_GRADE NEWDELHI_WIND NEWDELHI_PRES NEWDELHI_CI NEWDELHI_DP NEWDELHI_POCI REUNION_LAT REUNION_LON REUNION_TYPE REUNION_WIND REUNION_PRES REUNION_TNUM REUNION_CI REUNION_RMW REUNION_R34_NE REUNION_R34_SE REUNION_R34_SW REUNION_R34_NW REUNION_R50_NE REUNION_R50_SE REUNION_R50_SW REUNION_R50_NW REUNION_R64_NE REUNION_R64_SE REUNION_R64_SW REUNION_R64_NW BOM_LAT BOM_LON BOM_TYPE BOM_WIND BOM_PRES BOM_TNUM BOM_CI BOM_RMW BOM_R34_NE BOM_R34_SE BOM_R34_SW BOM_R34_NW BOM_R50_NE BOM_R50_SE BOM_R50_SW BOM_R50_NW BOM_R64_NE BOM_R64_SE BOM_R64_SW BOM_R64_NW BOM_ROCI BOM_POCI BOM_EYE BOM_POS_METHOD BOM_PRES_METHOD NADI_LAT NADI_LON NADI_CAT NADI_WIND NADI_PRES WELLINGTON_LAT WELLINGTON_LON WELLINGTON_WIND WELLINGTON_PRES DS824_LAT DS824_LON DS824_STAGE DS824_WIND DS824_PRES TD9636_LAT TD9636_LON TD9636_STAGE TD9636_WIND TD9636_PRES TD9635_LAT TD9635_LON TD9635_WIND TD9635_PRES TD9635_ROCI NEUMANN_LAT NEUMANN_LON NEUMANN_CLASS NEUMANN_WIND NEUMANN_PRES MLC_LAT MLC_LON MLC_CLASS MLC_WIND MLC_PRES USA_GUST BOM_GUST BOM_GUST_PER REUNION_GUST REUNION_GUST_PER USA_SEAHGT USA_SEARAD_NE USA_SEARAD_SE USA_SEARAD_SW USA_SEARAD_NW STORM_SPEED STORM_DIR
1899318N14125 1899 50 WP MM NOT_NAMED 1899-11-13 16:00:00 NR 13.5000 125.100 main 78 39 __________O___ -1 13.5000 125.100 7 11 272
1899318N14125 1899 50 WP MM NOT_NAMED 1899-11-13 18:00:00 NR 13.5120 124.712 main 39 0 __________P___ -1 13.5120 124.712 7 11 272
1899318N14125 1899 50 WP MM NOT_NAMED 1899-11-13 21:00:00 NR 13.5313 124.133 main 10 10 __________P___ -1 13.5313 124.133 7 11 272
1899318N14125 1899 50 WP MM NOT_NAMED 1899-11-14 00:00:00 NR 13.5551 123.557 main 10 0 __________P___ -1 13.5551 123.557 7 11 273
1899318N14125 1899 50 WP MM NOT_NAMED 1899-11-14 03:00:00 NR 13.5869 122.988 main 0 0 __________P___ -1 13.5869 122.988 7 11 273
1899318N14125 1899 50 WP MM NOT_NAMED 1899-11-14 04:00:00 NR 13.6000 122.800 main 10 0 __________O___ -1 13.6000 122.800 7 11 275
1899318N14125 1899 50 WP MM NOT_NAMED 1899-11-14 06:00:00 NR 13.6310 122.428 main 0 0 __________P___ -1 13.6310 122.428 7 11 276
1899318N14125 1899 50 WP MM NOT_NAMED 1899-11-14 09:00:00 NR 13.6962 121.882 main 24 0 __________P___ -1 13.6962 121.882 7 11 279
1899318N14125 1899 50 WP MM NOT_NAMED 1899-11-14 12:00:00 NR 13.7948 121.357 main 0 0 __________P___ -1 13.7948 121.357 7 10 284
1899318N14125 1899 50 WP MM NOT_NAMED 1899-11-14 15:00:00 NR 13.9394 120.859 main 0 0 __________P___ -1 13.9394 120.859 7 10 288
1899318N14125 1899 50 WP MM NOT_NAMED 1899-11-14 16:00:00 NR 14.0000 120.700 main 0 0 __________O___ -1 14.0000 120.700 7 11 292
1899318N14125 1899 50 WP MM NOT_NAMED 1899-11-14 18:00:00 NR 14.1381 120.355 main 21 31 __________P___ -1 14.1381 120.355 7 11 296
1899318N14125 1899 50 WP MM NOT_NAMED 1899-11-14 21:00:00 NR 14.3895 119.861 main 46 46 __________P___ -1 14.3895 119.861 7 11 301
1899318N14125 1899 50 WP MM NOT_NAMED 1899-11-15 00:00:00 NR 14.6797 119.427 main 76 76 __________P___ -1 14.6797 119.427 7 10 309
1899318N14125 1899 50 WP MM NOT_NAMED 1899-11-15 03:00:00 NR 14.9931 119.087 main 96 96 __________P___ -1 14.9931 119.087 7 9 315
1899318N14125 1899 50 WP MM NOT_NAMED 1899-11-15 04:00:00 NR 15.1000 119.000 main 102 99 __________O___ -1 15.1000 119.000 4 8 326
1899318N14125 1899 50 WP MM NOT_NAMED 1899-11-15 06:00:00 NR 15.3127 118.860 main 107 106 __________P___ -1 15.3127 118.860 4 7 336
1899318N14125 1899 50 WP MM NOT_NAMED 1899-11-15 09:00:00 NR 15.6449 118.744 main 116 106 __________P___ -1 15.6449 118.744 4 7 349
1899318N14125 1899 50 WP MM NOT_NAMED 1899-11-15 12:00:00 NR 15.9790 118.722 main 106 98 __________P___ -1 15.9790 118.722 4 7 0
1899318N14125 1899 50 WP MM NOT_NAMED 1899-11-15 15:00:00 NR 16.2991 118.771 main 101 101 __________P___ -1 16.2991 118.771 4 6 10
1899318N14125 1899 50 WP MM NOT_NAMED 1899-11-15 16:00:00 NR 16.4000 118.800 main 106 106 __________O___ -1 16.4000 118.800 4 6 14
1899318N14125 1899 50 WP MM NOT_NAMED 1899-11-15 18:00:00 NR 16.5864 118.846 main 111 101 __________P___ -1 16.5864 118.846 4 6 20
1899318N14125 1899 50 WP MM NOT_NAMED 1899-11-15 21:00:00 NR 16.8471 118.966 main 102 108 __________P___ -1 16.8471 118.966 4 6 29
1899318N14125 1899 50 WP MM NOT_NAMED 1899-11-16 00:00:00 NR 17.0908 119.133 main 116 110 __________P___ -1 17.0908 119.133 4 6 36
1899318N14125 1899 50 WP MM NOT_NAMED 1899-11-16 03:00:00 NR 17.3237 119.330 main 111 98 __________P___ -1 17.3237 119.330 4 6 40
1899318N14125 1899 50 WP MM NOT_NAMED 1899-11-16 04:00:00 NR 17.4000 119.400 main 98 84 __________O___ -1 17.4000 119.400 4 6 38
1899318N14125 1899 50 WP MM NOT_NAMED 1899-11-16 06:00:00 NR 17.5688 119.528 main 84 64 __________P___ -1 17.5688 119.528 4 6 38
1899318N14125 1899 50 WP MM NOT_NAMED 1899-11-16 09:00:00 NR 17.8160 119.738 main 67 52 __________P___ -1 17.8160 119.738 4 6 41
1899318N14125 1899 50 WP MM NOT_NAMED 1899-11-16 12:00:00 NR 18.0448 119.968 main 52 33 __________P___ -1 18.0448 119.968 4 6 47
1899318N14125 1899 50 WP MM NOT_NAMED 1899-11-16 15:00:00 NR 18.2430 120.215 main 33 30 __________P___ -1 18.2430 120.215 4 6 51
1899318N14125 1899 50 WP MM NOT_NAMED 1899-11-16 16:00:00 NR 18.3000 120.300 main 30 10 __________O___ -1 18.3000 120.300 4 6 58
1899318N14125 1899 50 WP MM NOT_NAMED 1899-11-16 18:00:00 NR 18.3990 120.475 main 10 0 __________P___ -1 18.3990 120.475 4 6 63
1899318N14125 1899 50 WP MM NOT_NAMED 1899-11-16 21:00:00 NR 18.5157 120.746 main 10 0 __________P___ -1 18.5157 120.746 4 6 68
1899318N14125 1899 50 WP MM NOT_NAMED 1899-11-17 00:00:00 NR 18.6046 121.023 main 10 10 __________P___ -1 18.6046 121.023 4 6 73
1899318N14125 1899 50 WP MM NOT_NAMED 1899-11-17 03:00:00 NR 18.6773 121.306 main 22 22 __________P___ -1 18.6773 121.306 4 6 75
1899318N14125 1899 50 WP MM NOT_NAMED 1899-11-17 04:00:00 NR 18.7000 121.400 main 22 __________O___ -1 18.7000 121.400 7 6 75

Digital Typhoon Data and Search

About IBTrACS Database

This database is a web-friendly format of International Best Track Archive for Climate Stewardship (IBTrACS), a global best track data archive curated by NOAA dating back to 1842.

Updated: 2021-12-01